createdAt,value
2019-01-26T00:00:28.465Z,0
2019-01-26T00:01:28.441Z,0
2019-01-26T00:02:28.193Z,0
2019-01-26T00:03:28.420Z,0
2019-01-26T00:04:28.209Z,0
2019-01-26T00:05:28.166Z,0
2019-01-26T00:06:28.386Z,0
2019-01-26T00:07:28.616Z,0
2019-01-26T00:08:28.353Z,0
2019-01-26T00:09:27.841Z,0
2019-01-26T00:10:28.341Z,0
2019-01-26T00:11:28.177Z,0
2019-01-26T00:12:28.567Z,0
2019-01-26T00:13:28.062Z,0
2019-01-26T00:14:28.046Z,0
2019-01-26T00:15:28.528Z,0
2019-01-26T00:16:30.490Z,0
2019-01-26T00:17:28.017Z,0
2019-01-26T00:18:29.047Z,0
2019-01-26T00:19:27.766Z,0
2019-01-26T00:20:28.481Z,0
2019-01-26T00:21:27.993Z,0
2019-01-26T00:22:28.205Z,0
2019-01-26T00:23:28.440Z,0
2019-01-26T00:24:28.196Z,0
2019-01-26T00:25:28.408Z,0
2019-01-26T00:26:28.439Z,0
2019-01-26T00:27:27.668Z,0
2019-01-26T00:28:28.514Z,0
2019-01-26T00:29:27.887Z,0
2019-01-26T00:30:28.121Z,0
2019-01-26T00:31:28.119Z,0
2019-01-26T00:32:27.849Z,0
2019-01-26T00:33:27.920Z,0
2019-01-26T00:34:28.069Z,0
2019-01-26T00:35:28.065Z,0
2019-01-26T00:36:28.060Z,0
2019-01-26T00:37:27.781Z,0
2019-01-26T00:38:28.008Z,0
2019-01-26T00:39:27.999Z,0
2019-01-26T00:40:27.809Z,0
2019-01-26T00:41:27.762Z,0
2019-01-26T00:42:27.726Z,0
2019-01-26T00:43:27.706Z,0
2019-01-26T00:44:27.753Z,0
2019-01-26T00:45:27.453Z,0
2019-01-26T00:46:33.021Z,0
2019-01-26T00:47:27.677Z,0
2019-01-26T00:48:27.659Z,0
2019-01-26T00:49:28.150Z,0
2019-01-26T00:50:27.879Z,0
2019-01-26T00:51:27.871Z,0
2019-01-26T00:52:28.123Z,0
2019-01-26T00:53:27.843Z,0
2019-01-26T00:54:27.855Z,0
2019-01-26T00:55:27.831Z,0
2019-01-26T00:56:27.316Z,0
2019-01-26T00:57:28.038Z,0
2019-01-26T00:58:30.683Z,0
2019-01-26T00:59:28.024Z,0
2019-01-26T01:00:27.801Z,0
2019-01-26T01:01:27.010Z,0
2019-01-26T01:02:27.993Z,0
2019-01-26T01:03:27.804Z,0
2019-01-26T01:04:27.724Z,0
2019-01-26T01:05:27.725Z,0
2019-01-26T01:06:30.901Z,0
2019-01-26T01:07:27.693Z,0
2019-01-26T01:08:27.182Z,0
2019-01-26T01:09:27.177Z,0
2019-01-26T01:10:27.432Z,0
2019-01-26T01:11:27.409Z,0
2019-01-26T01:12:27.649Z,0
2019-01-26T01:13:27.878Z,0
2019-01-26T01:14:27.604Z,0
2019-01-26T01:15:27.114Z,0
2019-01-26T01:16:27.384Z,0
2019-01-26T01:17:27.578Z,0
2019-01-26T01:18:27.572Z,0
2019-01-26T01:19:30.020Z,0
2019-01-26T01:20:27.540Z,0
2019-01-26T01:21:27.554Z,0
2019-01-26T01:22:27.295Z,0
2019-01-26T01:23:27.514Z,0
2019-01-26T01:24:27.250Z,0
2019-01-26T01:25:27.485Z,0
2019-01-26T01:26:27.468Z,0
2019-01-26T01:27:27.204Z,0
2019-01-26T01:28:27.462Z,0
2019-01-26T01:29:27.445Z,0
2019-01-26T01:30:27.184Z,0
2019-01-26T01:31:27.660Z,0
2019-01-26T01:32:27.155Z,0
2019-01-26T01:33:27.626Z,0
2019-01-26T01:34:26.877Z,0
2019-01-26T01:35:27.365Z,0
2019-01-26T01:36:26.868Z,0
2019-01-26T01:37:27.338Z,0
2019-01-26T01:38:27.368Z,0
2019-01-26T01:39:27.568Z,0
2019-01-26T01:40:27.293Z,0
2019-01-26T01:41:27.290Z,0
2019-01-26T01:42:27.287Z,0
2019-01-26T01:43:27.001Z,0
2019-01-26T01:44:27.310Z,0
2019-01-26T01:45:26.993Z,0
2019-01-26T01:46:27.223Z,0
2019-01-26T01:47:26.966Z,0
2019-01-26T01:48:26.950Z,0
2019-01-26T01:49:26.974Z,0
2019-01-26T01:50:26.674Z,0
2019-01-26T01:51:27.418Z,0
2019-01-26T01:52:27.161Z,0
2019-01-26T01:53:26.650Z,0
2019-01-26T01:54:27.124Z,0
2019-01-26T01:55:27.106Z,0
2019-01-26T01:56:26.854Z,0
2019-01-26T01:57:27.144Z,0
2019-01-26T01:58:26.819Z,0
2019-01-26T01:59:27.362Z,0
2019-01-26T02:00:26.601Z,0
2019-01-26T02:01:27.031Z,0
2019-01-26T02:02:26.761Z,0
2019-01-26T02:03:26.779Z,0
2019-01-26T02:04:27.259Z,0
2019-01-26T02:05:27.000Z,0
2019-01-26T02:06:26.498Z,0
2019-01-26T02:07:27.241Z,0
2019-01-26T02:08:26.965Z,0
2019-01-26T02:09:26.699Z,0
2019-01-26T02:10:26.948Z,0
2019-01-26T02:11:27.181Z,0
2019-01-26T02:12:26.698Z,0
2019-01-26T02:13:26.418Z,0
2019-01-26T02:14:26.633Z,0
2019-01-26T02:15:26.634Z,0
2019-01-26T02:16:26.885Z,0
2019-01-26T02:17:27.126Z,0
2019-01-26T02:18:26.591Z,0
2019-01-26T02:19:27.141Z,0
2019-01-26T02:20:26.825Z,0
2019-01-26T02:21:26.796Z,0
2019-01-26T02:22:26.791Z,0
2019-01-26T02:23:26.589Z,0
2019-01-26T02:24:26.270Z,0
2019-01-26T02:25:26.518Z,0
2019-01-26T02:26:26.743Z,0
2019-01-26T02:27:26.473Z,0
2019-01-26T02:28:26.715Z,0
2019-01-26T02:29:26.470Z,0
2019-01-26T02:30:26.972Z,0
2019-01-26T02:31:26.687Z,0
2019-01-26T02:32:26.957Z,0
2019-01-26T02:33:26.670Z,0
2019-01-26T02:34:26.896Z,0
2019-01-26T02:35:26.409Z,0
2019-01-26T02:36:26.873Z,0
2019-01-26T02:37:26.378Z,0
2019-01-26T02:38:26.336Z,0
2019-01-26T02:39:26.628Z,0
2019-01-26T02:40:26.634Z,0
2019-01-26T02:41:26.567Z,0
2019-01-26T02:42:26.538Z,0
2019-01-26T02:43:26.295Z,0
2019-01-26T02:44:26.775Z,0
2019-01-26T02:45:26.516Z,0
2019-01-26T02:46:26.022Z,0
2019-01-26T02:47:25.979Z,0
2019-01-26T02:48:26.469Z,0
2019-01-26T02:49:25.959Z,0
2019-01-26T02:50:26.474Z,0
2019-01-26T02:51:26.485Z,0
2019-01-26T02:52:25.927Z,0
2019-01-26T02:53:26.583Z,0
2019-01-26T02:54:26.645Z,0
2019-01-26T02:55:26.661Z,0
2019-01-26T02:56:26.168Z,0
2019-01-26T02:57:26.122Z,0
2019-01-26T02:58:26.364Z,0
2019-01-26T02:59:26.355Z,0
2019-01-26T03:00:26.638Z,0
2019-01-26T03:01:27.454Z,0
2019-01-26T03:02:26.311Z,0
2019-01-26T03:03:26.045Z,0
2019-01-26T03:04:26.063Z,0
2019-01-26T03:05:26.292Z,0
2019-01-26T03:06:25.799Z,0
2019-01-26T03:07:26.013Z,0
2019-01-26T03:08:26.255Z,0
2019-01-26T03:09:25.976Z,0
2019-01-26T03:10:25.723Z,0
2019-01-26T03:11:26.198Z,0
2019-01-26T03:12:25.973Z,0
2019-01-26T03:13:25.914Z,0
2019-01-26T03:14:26.177Z,0
2019-01-26T03:15:26.452Z,0
2019-01-26T03:16:26.172Z,0
2019-01-26T03:17:26.148Z,0
2019-01-26T03:18:26.140Z,0
2019-01-26T03:19:25.858Z,0
2019-01-26T03:20:26.356Z,0
2019-01-26T03:21:25.876Z,0
2019-01-26T03:22:26.366Z,0
2019-01-26T03:23:26.051Z,0
2019-01-26T03:24:26.096Z,0
2019-01-26T03:25:25.796Z,0
2019-01-26T03:26:25.810Z,0
2019-01-26T03:27:25.545Z,0
2019-01-26T03:28:26.020Z,0
2019-01-26T03:29:25.757Z,0
2019-01-26T03:30:25.857Z,0
2019-01-26T03:31:26.014Z,0
2019-01-26T03:32:26.273Z,0
2019-01-26T03:33:26.001Z,0
2019-01-26T03:34:25.950Z,0
2019-01-26T03:35:25.296Z,0
2019-01-26T03:36:26.172Z,0
2019-01-26T03:37:25.645Z,0
2019-01-26T03:38:25.882Z,0
2019-01-26T03:39:25.873Z,0
2019-01-26T03:40:26.011Z,0
2019-01-26T03:41:25.848Z,0
2019-01-26T03:42:25.850Z,0
2019-01-26T03:43:25.825Z,0
2019-01-26T03:44:25.850Z,0
2019-01-26T03:45:25.596Z,0
2019-01-26T03:46:26.055Z,0
2019-01-26T03:47:25.551Z,0
2019-01-26T03:48:25.545Z,0
2019-01-26T03:49:25.575Z,0
2019-01-26T03:50:26.538Z,0
2019-01-26T03:51:26.016Z,0
2019-01-26T03:52:26.017Z,0
2019-01-26T03:53:25.728Z,0
2019-01-26T03:54:25.728Z,0
2019-01-26T03:55:25.478Z,0
2019-01-26T03:56:25.940Z,0
2019-01-26T03:57:27.399Z,0
2019-01-26T03:58:25.416Z,0
2019-01-26T03:59:25.673Z,0
2019-01-26T04:00:25.494Z,0
2019-01-26T04:01:25.446Z,0
2019-01-26T04:02:25.136Z,0
2019-01-26T04:03:25.625Z,0
2019-01-26T04:04:25.340Z,0
2019-01-26T04:05:25.455Z,0
2019-01-26T04:06:25.642Z,0
2019-01-26T04:07:25.303Z,0
2019-01-26T04:08:25.793Z,0
2019-01-26T04:09:25.291Z,0
2019-01-26T04:10:25.681Z,0
2019-01-26T04:11:25.526Z,0
2019-01-26T04:12:25.515Z,0
2019-01-26T04:13:25.241Z,0
2019-01-26T04:14:25.858Z,0
2019-01-26T04:15:25.820Z,0
2019-01-26T04:16:25.462Z,0
2019-01-26T04:17:31.403Z,0
2019-01-26T04:18:25.461Z,0
2019-01-26T04:19:25.677Z,0
2019-01-26T04:20:29.511Z,0
2019-01-26T04:21:25.146Z,0
2019-01-26T04:22:25.141Z,0
2019-01-26T04:23:25.370Z,0
2019-01-26T04:24:25.623Z,0
2019-01-26T04:25:25.220Z,0
2019-01-26T04:26:25.568Z,0
2019-01-26T04:27:25.334Z,0
2019-01-26T04:28:25.328Z,0
2019-01-26T04:29:25.081Z,0
2019-01-26T04:30:25.381Z,0
2019-01-26T04:31:25.536Z,0
2019-01-26T04:32:25.032Z,0
2019-01-26T04:33:25.067Z,0
2019-01-26T04:34:25.284Z,0
2019-01-26T04:35:25.589Z,0
2019-01-26T04:36:25.234Z,0
2019-01-26T04:37:24.485Z,0
2019-01-26T04:38:25.460Z,0
2019-01-26T04:39:24.951Z,0
2019-01-26T04:40:25.288Z,0
2019-01-26T04:41:25.173Z,0
2019-01-26T04:42:25.189Z,0
2019-01-26T04:43:25.151Z,0
2019-01-26T04:44:25.432Z,0
2019-01-26T04:45:25.252Z,0
2019-01-26T04:46:24.854Z,0
2019-01-26T04:47:33.191Z,0
2019-01-26T04:48:25.077Z,0
2019-01-26T04:49:25.374Z,0
2019-01-26T04:50:25.285Z,0
2019-01-26T04:51:24.831Z,0
2019-01-26T04:52:24.810Z,0
2019-01-26T04:53:25.290Z,0
2019-01-26T04:54:25.283Z,0
2019-01-26T04:55:25.062Z,0
2019-01-26T04:56:24.519Z,0
2019-01-26T04:57:24.771Z,0
2019-01-26T04:58:24.982Z,0
2019-01-26T04:59:24.992Z,0
2019-01-26T05:00:25.070Z,0
2019-01-26T05:01:24.963Z,0
2019-01-26T05:02:24.941Z,0
2019-01-26T05:03:24.941Z,0
2019-01-26T05:04:24.944Z,0
2019-01-26T05:05:24.991Z,0
2019-01-26T05:06:25.154Z,0
2019-01-26T05:07:24.414Z,0
2019-01-26T05:08:25.161Z,0
2019-01-26T05:09:24.694Z,0
2019-01-26T05:10:25.209Z,0
2019-01-26T05:11:24.836Z,0
2019-01-26T05:12:25.105Z,0
2019-01-26T05:13:25.076Z,0
2019-01-26T05:14:24.815Z,0
2019-01-26T05:15:24.866Z,0
2019-01-26T05:16:24.784Z,0
2019-01-26T05:17:25.092Z,0
2019-01-26T05:18:24.368Z,0
2019-01-26T05:19:25.010Z,0
2019-01-26T05:20:24.837Z,0
2019-01-26T05:21:25.275Z,0
2019-01-26T05:22:24.500Z,0
2019-01-26T05:23:24.965Z,0
2019-01-26T05:24:24.513Z,0
2019-01-26T05:25:24.776Z,0
2019-01-26T05:26:24.684Z,0
2019-01-26T05:27:24.921Z,0
2019-01-26T05:28:24.660Z,0
2019-01-26T05:29:24.922Z,0
2019-01-26T05:30:24.656Z,0
2019-01-26T05:31:24.413Z,0
2019-01-26T05:32:24.613Z,0
2019-01-26T05:33:26.599Z,0
2019-01-26T05:34:24.624Z,0
2019-01-26T05:35:24.619Z,0
2019-01-26T05:36:24.597Z,0
2019-01-26T05:37:24.554Z,0
2019-01-26T05:38:24.557Z,0
2019-01-26T05:39:24.755Z,0
2019-01-26T05:40:24.924Z,0
2019-01-26T05:41:24.783Z,0
2019-01-26T05:42:24.759Z,0
2019-01-26T05:43:24.762Z,0
2019-01-26T05:44:24.538Z,0
2019-01-26T05:45:24.958Z,0
2019-01-26T05:46:24.500Z,0
2019-01-26T05:47:24.474Z,0
2019-01-26T05:48:24.466Z,0
2019-01-26T05:49:24.180Z,0
2019-01-26T05:50:24.504Z,0
2019-01-26T05:51:24.176Z,0
2019-01-26T05:52:24.180Z,0
2019-01-26T05:53:24.640Z,0
2019-01-26T05:54:24.453Z,0
2019-01-26T05:55:24.665Z,0
2019-01-26T05:56:24.446Z,0
2019-01-26T05:57:24.609Z,0
2019-01-26T05:58:24.357Z,0
2019-01-26T05:59:24.350Z,0
2019-01-26T06:00:24.095Z,0
2019-01-26T06:01:24.335Z,0
2019-01-26T06:02:23.856Z,0
2019-01-26T06:03:24.070Z,0
2019-01-26T06:04:24.283Z,0
2019-01-26T06:05:24.068Z,0
2019-01-26T06:06:24.268Z,0
2019-01-26T06:07:23.753Z,0
2019-01-26T06:08:24.543Z,0
2019-01-26T06:09:24.265Z,0
2019-01-26T06:10:24.318Z,0
2019-01-26T06:11:24.474Z,0
2019-01-26T06:12:24.492Z,0
2019-01-26T06:13:24.191Z,0
2019-01-26T06:14:24.497Z,0
2019-01-26T06:15:24.425Z,0
2019-01-26T06:16:24.186Z,0
2019-01-26T06:17:24.462Z,0
2019-01-26T06:18:24.124Z,0
2019-01-26T06:19:23.890Z,0
2019-01-26T06:20:24.384Z,0
2019-01-26T06:21:24.121Z,0
2019-01-26T06:22:24.081Z,0
2019-01-26T06:23:24.338Z,0
2019-01-26T06:24:23.850Z,0
2019-01-26T06:25:24.172Z,0
2019-01-26T06:26:23.583Z,0
2019-01-26T06:27:23.788Z,0
2019-01-26T06:28:23.833Z,0
2019-01-26T06:29:24.034Z,0
2019-01-26T06:30:23.796Z,0
2019-01-26T06:31:24.021Z,0
2019-01-26T06:32:23.744Z,0
2019-01-26T06:33:23.793Z,0
2019-01-26T06:34:24.226Z,0
2019-01-26T06:35:23.813Z,0
2019-01-26T06:36:23.987Z,0
2019-01-26T06:37:24.200Z,0
2019-01-26T06:38:23.955Z,0
2019-01-26T06:39:23.428Z,0
2019-01-26T06:40:24.006Z,0
2019-01-26T06:41:24.020Z,0
2019-01-26T06:42:24.182Z,0
2019-01-26T06:43:24.257Z,0
2019-01-26T06:44:24.131Z,0
2019-01-26T06:45:23.653Z,0
2019-01-26T06:46:23.850Z,0
2019-01-26T06:47:23.849Z,0
2019-01-26T06:48:23.838Z,0
2019-01-26T06:49:23.351Z,0
2019-01-26T06:50:23.666Z,0
2019-01-26T06:51:23.318Z,0
2019-01-26T06:52:23.068Z,0
2019-01-26T06:53:23.289Z,0
2019-01-26T06:54:23.527Z,0
2019-01-26T06:55:23.883Z,0
2019-01-26T06:56:24.000Z,0
2019-01-26T06:57:23.514Z,0
2019-01-26T06:58:23.752Z,0
2019-01-26T06:59:23.728Z,0
2019-01-26T07:00:23.501Z,0
2019-01-26T07:01:23.464Z,0
2019-01-26T07:02:24.495Z,0
2019-01-26T07:03:23.443Z,0
2019-01-26T07:04:23.420Z,0
2019-01-26T07:05:23.230Z,0
2019-01-26T07:06:23.169Z,0
2019-01-26T07:07:23.397Z,0
2019-01-26T07:08:23.391Z,0
2019-01-26T07:09:23.135Z,0
2019-01-26T07:10:23.873Z,0
2019-01-26T07:11:23.112Z,0
2019-01-26T07:12:23.355Z,0
2019-01-26T07:13:23.595Z,0
2019-01-26T07:14:23.825Z,0
2019-01-26T07:15:23.612Z,0
2019-01-26T07:16:23.075Z,0
2019-01-26T07:17:23.829Z,0
2019-01-26T07:18:22.858Z,0
2019-01-26T07:19:23.563Z,0
2019-01-26T07:20:23.366Z,0
2019-01-26T07:21:23.296Z,0
2019-01-26T07:22:24.631Z,0
2019-01-26T07:23:23.504Z,0
2019-01-26T07:24:23.228Z,0
2019-01-26T07:25:23.766Z,5
2019-01-26T07:26:23.725Z,5
2019-01-26T07:27:23.262Z,5
2019-01-26T07:28:23.457Z,5
2019-01-26T07:29:23.212Z,5
2019-01-26T07:30:23.184Z,5
2019-01-26T07:31:23.410Z,5
2019-01-26T07:32:23.149Z,5
2019-01-26T07:33:23.405Z,5
2019-01-26T07:34:22.905Z,5
2019-01-26T07:35:23.442Z,5
2019-01-26T07:36:23.354Z,10
2019-01-26T07:37:22.835Z,10
2019-01-26T07:38:23.581Z,10
2019-01-26T07:39:22.596Z,10
2019-01-26T07:40:23.640Z,10
2019-01-26T07:41:23.063Z,10
2019-01-26T07:42:22.809Z,10
2019-01-26T07:43:23.273Z,10
2019-01-26T07:44:22.528Z,10
2019-01-26T07:45:23.340Z,10
2019-01-26T07:46:23.323Z,10
2019-01-26T07:47:24.049Z,10
2019-01-26T07:48:26.072Z,10
2019-01-26T07:49:23.013Z,15
2019-01-26T07:50:23.374Z,15
2019-01-26T07:51:22.692Z,15
2019-01-26T07:52:23.443Z,15
2019-01-26T07:53:22.917Z,20
2019-01-26T07:54:24.570Z,20
2019-01-26T07:55:23.221Z,20
2019-01-26T07:56:23.167Z,20
2019-01-26T07:57:23.391Z,20
2019-01-26T07:58:23.143Z,20
2019-01-26T07:59:22.876Z,25
2019-01-26T08:00:23.131Z,25
2019-01-26T08:01:23.430Z,25
2019-01-26T08:02:23.109Z,30
2019-01-26T08:03:23.100Z,30
2019-01-26T08:04:22.855Z,30
2019-01-26T08:05:23.375Z,30
2019-01-26T08:06:23.336Z,35
2019-01-26T08:07:22.547Z,40
2019-01-26T08:08:23.294Z,40
2019-01-26T08:09:22.527Z,40
2019-01-26T08:10:22.584Z,40
2019-01-26T08:11:22.761Z,45
2019-01-26T08:12:22.496Z,50
2019-01-26T08:13:23.564Z,50
2019-01-26T08:14:22.992Z,55
2019-01-26T08:15:23.016Z,55
2019-01-26T08:16:23.049Z,55
2019-01-26T08:17:22.742Z,55
2019-01-26T08:18:28.894Z,50
2019-01-26T08:19:23.194Z,50
2019-01-26T08:20:23.198Z,55
2019-01-26T08:21:23.174Z,55
2019-01-26T08:22:22.669Z,55
2019-01-26T08:23:24.301Z,50
2019-01-26T08:24:22.907Z,50
2019-01-26T08:25:22.650Z,50
2019-01-26T08:26:22.651Z,55
2019-01-26T08:27:22.865Z,55
2019-01-26T08:28:22.851Z,55
2019-01-26T08:29:22.628Z,60
2019-01-26T08:30:22.650Z,60
2019-01-26T08:31:22.841Z,55
2019-01-26T08:32:22.821Z,50
2019-01-26T08:33:22.811Z,50
2019-01-26T08:34:22.305Z,50
2019-01-26T08:35:23.139Z,50
2019-01-26T08:36:22.535Z,50
2019-01-26T08:37:22.527Z,50
2019-01-26T08:38:22.783Z,50
2019-01-26T08:39:23.004Z,60
2019-01-26T08:40:23.107Z,60
2019-01-26T08:41:22.487Z,60
2019-01-26T08:42:22.030Z,65
2019-01-26T08:43:22.262Z,60
2019-01-26T08:44:22.733Z,55
2019-01-26T08:45:23.014Z,55
2019-01-26T08:46:22.182Z,60
2019-01-26T08:47:22.684Z,65
2019-01-26T08:48:22.706Z,70
2019-01-26T08:49:22.445Z,80
2019-01-26T08:50:22.479Z,80
2019-01-26T08:51:22.158Z,85
2019-01-26T08:52:22.360Z,85
2019-01-26T08:53:22.625Z,90
2019-01-26T08:54:23.927Z,95
2019-01-26T08:55:27.844Z,95
2019-01-26T08:56:22.584Z,100
2019-01-26T08:57:22.603Z,100
2019-01-26T08:58:22.337Z,100
2019-01-26T08:59:22.808Z,105
2019-01-26T09:00:22.612Z,105
2019-01-26T09:01:22.295Z,105
2019-01-26T09:02:27.921Z,105
2019-01-26T09:03:22.317Z,100
2019-01-26T09:04:22.530Z,100
2019-01-26T09:05:22.546Z,95
2019-01-26T09:06:22.499Z,90
2019-01-26T09:07:22.250Z,85
2019-01-26T09:08:22.265Z,90
2019-01-26T09:09:21.769Z,85
2019-01-26T09:10:22.772Z,80
2019-01-26T09:11:22.506Z,75
2019-01-26T09:12:22.458Z,70
2019-01-26T09:13:22.212Z,65
2019-01-26T09:14:22.190Z,65
2019-01-26T09:15:22.268Z,65
2019-01-26T09:16:22.410Z,65
2019-01-26T09:17:22.672Z,65
2019-01-26T09:18:21.671Z,70
2019-01-26T09:19:22.556Z,70
2019-01-26T09:20:22.765Z,70
2019-01-26T09:21:22.652Z,70
2019-01-26T09:22:21.926Z,70
2019-01-26T09:23:22.482Z,70
2019-01-26T09:24:22.355Z,65
2019-01-26T09:25:21.976Z,65
2019-01-26T09:26:21.843Z,60
2019-01-26T09:27:22.331Z,55
2019-01-26T09:28:22.576Z,55
2019-01-26T09:29:22.330Z,50
2019-01-26T09:30:22.310Z,50
2019-01-26T09:31:22.067Z,50
2019-01-26T09:32:22.318Z,50
2019-01-26T09:33:22.040Z,50
2019-01-26T09:34:22.534Z,50
2019-01-26T09:35:22.378Z,55
2019-01-26T09:36:22.010Z,55
2019-01-26T09:37:22.493Z,60
2019-01-26T09:38:22.055Z,65
2019-01-26T09:39:22.505Z,70
2019-01-26T09:40:22.036Z,75
2019-01-26T09:41:21.736Z,75
2019-01-26T09:42:22.460Z,75
2019-01-26T09:43:21.700Z,75
2019-01-26T09:44:21.933Z,75
2019-01-26T09:45:21.771Z,75
2019-01-26T09:46:21.683Z,75
2019-01-26T09:47:22.650Z,75
2019-01-26T09:48:22.474Z,80
2019-01-26T09:49:22.404Z,90
2019-01-26T09:50:21.666Z,95
2019-01-26T09:51:22.160Z,90
2019-01-26T09:52:22.132Z,90
2019-01-26T09:53:22.963Z,90
2019-01-26T09:54:21.668Z,85
2019-01-26T09:55:21.939Z,80
2019-01-26T09:56:21.601Z,80
2019-01-26T09:57:21.616Z,75
2019-01-26T09:58:22.465Z,75
2019-01-26T09:59:22.771Z,80
2019-01-26T10:00:21.854Z,90
2019-01-26T10:01:22.371Z,95
2019-01-26T10:02:22.039Z,105
2019-01-26T10:03:22.052Z,105
2019-01-26T10:04:22.193Z,105
2019-01-26T10:05:22.158Z,105
2019-01-26T10:06:22.021Z,105
2019-01-26T10:07:22.010Z,105
2019-01-26T10:08:22.068Z,105
2019-01-26T10:09:23.273Z,115
2019-01-26T10:10:22.016Z,125
2019-01-26T10:11:21.718Z,125
2019-01-26T10:12:21.976Z,115
2019-01-26T10:13:21.808Z,110
2019-01-26T10:14:21.697Z,115
2019-01-26T10:15:22.623Z,115
2019-01-26T10:16:22.526Z,110
2019-01-26T10:17:21.941Z,110
2019-01-26T10:18:22.179Z,100
2019-01-26T10:19:21.663Z,100
2019-01-26T10:20:21.774Z,100
2019-01-26T10:21:21.412Z,100
2019-01-26T10:22:21.889Z,95
2019-01-26T10:23:21.959Z,90
2019-01-26T10:24:21.896Z,80
2019-01-26T10:25:21.673Z,75
2019-01-26T10:26:21.870Z,80
2019-01-26T10:27:21.606Z,80
2019-01-26T10:28:21.838Z,90
2019-01-26T10:29:21.572Z,105
2019-01-26T10:30:21.898Z,115
2019-01-26T10:31:21.345Z,115
2019-01-26T10:32:21.804Z,115
2019-01-26T10:33:22.089Z,125
2019-01-26T10:34:21.789Z,115
2019-01-26T10:35:21.577Z,110
2019-01-26T10:36:21.788Z,105
2019-01-26T10:37:21.482Z,105
2019-01-26T10:38:22.015Z,105
2019-01-26T10:39:21.758Z,105
2019-01-26T10:40:21.781Z,100
2019-01-26T10:41:21.733Z,100
2019-01-26T10:42:21.726Z,95
2019-01-26T10:43:21.998Z,95
2019-01-26T10:44:21.729Z,105
2019-01-26T10:45:21.534Z,110
2019-01-26T10:46:21.220Z,110
2019-01-26T10:47:21.473Z,120
2019-01-26T10:48:21.455Z,145
2019-01-26T10:49:21.455Z,165
2019-01-26T10:50:21.239Z,190
2019-01-26T10:51:21.459Z,205
2019-01-26T10:52:21.672Z,220
2019-01-26T10:53:21.868Z,225
2019-01-26T10:54:21.647Z,225
2019-01-26T10:55:21.438Z,220
2019-01-26T10:56:21.413Z,215
2019-01-26T10:57:21.674Z,205
2019-01-26T10:58:21.389Z,210
2019-01-26T10:59:21.655Z,200
2019-01-26T11:00:21.189Z,200
2019-01-26T11:01:21.607Z,180
2019-01-26T11:02:21.358Z,175
2019-01-26T11:03:21.586Z,200
2019-01-26T11:04:21.099Z,195
2019-01-26T11:05:21.156Z,185
2019-01-26T11:06:21.364Z,175
2019-01-26T11:07:22.754Z,160
2019-01-26T11:08:21.643Z,165
2019-01-26T11:09:21.306Z,180
2019-01-26T11:10:21.118Z,185
2019-01-26T11:11:21.046Z,190
2019-01-26T11:12:21.288Z,200
2019-01-26T11:13:21.045Z,210
2019-01-26T11:14:21.276Z,215
2019-01-26T11:15:21.378Z,215
2019-01-26T11:16:21.289Z,210
2019-01-26T11:17:21.280Z,195
2019-01-26T11:18:21.286Z,185
2019-01-26T11:19:21.754Z,180
2019-01-26T11:20:21.493Z,185
2019-01-26T11:21:21.498Z,205
2019-01-26T11:22:21.508Z,210
2019-01-26T11:23:21.474Z,205
2019-01-26T11:24:22.765Z,195
2019-01-26T11:25:21.758Z,185
2019-01-26T11:26:21.493Z,170
2019-01-26T11:27:21.225Z,165
2019-01-26T11:28:21.436Z,160
2019-01-26T11:29:21.209Z,150
2019-01-26T11:30:20.812Z,145
2019-01-26T11:31:21.685Z,145
2019-01-26T11:32:21.671Z,140
2019-01-26T11:33:21.430Z,140
2019-01-26T11:34:21.678Z,135
2019-01-26T11:35:21.176Z,130
2019-01-26T11:36:21.437Z,135
2019-01-26T11:37:21.648Z,135
2019-01-26T11:38:21.668Z,135
2019-01-26T11:39:21.440Z,140
2019-01-26T11:40:21.408Z,145
2019-01-26T11:41:21.386Z,155
2019-01-26T11:42:21.363Z,150
2019-01-26T11:43:21.631Z,155
2019-01-26T11:44:21.134Z,165
2019-01-26T11:45:21.662Z,185
2019-01-26T11:46:21.099Z,200
2019-01-26T11:47:21.628Z,180
2019-01-26T11:48:21.337Z,175
2019-01-26T11:49:24.802Z,180
2019-01-26T11:50:21.331Z,190
2019-01-26T11:51:21.329Z,190
2019-01-26T11:52:21.561Z,190
2019-01-26T11:53:21.328Z,190
2019-01-26T11:54:21.360Z,180
2019-01-26T11:55:21.419Z,175
2019-01-26T11:56:21.054Z,185
2019-01-26T11:57:21.278Z,215
2019-01-26T11:58:21.550Z,220
2019-01-26T11:59:21.556Z,220
2019-01-26T12:00:21.300Z,240
2019-01-26T12:01:21.525Z,230
2019-01-26T12:02:21.072Z,225
2019-01-26T12:03:21.030Z,230
2019-01-26T12:04:21.010Z,225
2019-01-26T12:05:21.620Z,230
2019-01-26T12:06:21.234Z,235
2019-01-26T12:07:21.253Z,230
2019-01-26T12:08:21.472Z,220
2019-01-26T12:09:21.293Z,225
2019-01-26T12:10:21.375Z,220
2019-01-26T12:11:21.217Z,215
2019-01-26T12:12:20.957Z,215
2019-01-26T12:13:21.453Z,225
2019-01-26T12:14:20.707Z,195
2019-01-26T12:15:21.260Z,185
2019-01-26T12:16:26.832Z,180
2019-01-26T12:17:21.191Z,175
2019-01-26T12:18:21.199Z,160
2019-01-26T12:19:27.205Z,160
2019-01-26T12:20:20.790Z,165
2019-01-26T12:21:21.441Z,165
2019-01-26T12:22:21.160Z,145
2019-01-26T12:23:21.183Z,135
2019-01-26T12:24:21.408Z,110
2019-01-26T12:25:21.466Z,95
2019-01-26T12:26:21.181Z,95
2019-01-26T12:27:21.172Z,100
2019-01-26T12:28:20.891Z,100
2019-01-26T12:29:21.380Z,95
2019-01-26T12:30:21.171Z,95
2019-01-26T12:31:21.154Z,95
2019-01-26T12:32:21.116Z,95
2019-01-26T12:33:21.147Z,90
2019-01-26T12:34:21.102Z,95
2019-01-26T12:35:21.193Z,115
2019-01-26T12:36:21.098Z,120
2019-01-26T12:37:20.596Z,125
2019-01-26T12:38:21.104Z,140
2019-01-26T12:39:20.821Z,170
2019-01-26T12:40:21.383Z,205
2019-01-26T12:41:21.326Z,185
2019-01-26T12:42:21.091Z,175
2019-01-26T12:43:21.063Z,155
2019-01-26T12:44:20.797Z,140
2019-01-26T12:45:21.104Z,120
2019-01-26T12:46:21.008Z,120
2019-01-26T12:47:26.548Z,125
2019-01-26T12:48:21.037Z,120
2019-01-26T12:49:20.756Z,115
2019-01-26T12:50:21.265Z,110
2019-01-26T12:51:20.755Z,110
2019-01-26T12:52:20.769Z,110
2019-01-26T12:53:21.227Z,105
2019-01-26T12:54:20.755Z,105
2019-01-26T12:55:23.644Z,120
2019-01-26T12:56:20.978Z,125
2019-01-26T12:57:20.718Z,125
2019-01-26T12:58:21.210Z,135
2019-01-26T12:59:20.738Z,135
2019-01-26T13:00:20.747Z,120
2019-01-26T13:01:20.695Z,125
2019-01-26T13:02:20.949Z,140
2019-01-26T13:03:20.922Z,135
2019-01-26T13:04:20.569Z,130
2019-01-26T13:05:20.493Z,130
2019-01-26T13:06:21.223Z,155
2019-01-26T13:07:20.427Z,155
2019-01-26T13:08:20.909Z,140
2019-01-26T13:09:20.661Z,110
2019-01-26T13:10:20.534Z,95
2019-01-26T13:11:20.636Z,90
2019-01-26T13:12:20.652Z,95
2019-01-26T13:13:20.915Z,100
2019-01-26T13:14:20.885Z,110
2019-01-26T13:15:24.454Z,125
2019-01-26T13:16:21.129Z,135
2019-01-26T13:17:20.616Z,135
2019-01-26T13:18:20.618Z,130
2019-01-26T13:19:20.635Z,140
2019-01-26T13:20:20.669Z,150
2019-01-26T13:21:20.342Z,160
2019-01-26T13:22:20.690Z,165
2019-01-26T13:23:20.892Z,155
2019-01-26T13:24:20.713Z,145
2019-01-26T13:25:20.852Z,145
2019-01-26T13:26:20.550Z,160
2019-01-26T13:27:20.810Z,145
2019-01-26T13:28:21.071Z,135
2019-01-26T13:29:20.778Z,135
2019-01-26T13:30:20.822Z,130
2019-01-26T13:31:20.611Z,130
2019-01-26T13:32:20.772Z,125
2019-01-26T13:33:20.769Z,125
2019-01-26T13:34:22.014Z,115
2019-01-26T13:35:20.330Z,120
2019-01-26T13:36:20.998Z,125
2019-01-26T13:37:20.262Z,120
2019-01-26T13:38:20.501Z,120
2019-01-26T13:39:20.728Z,130
2019-01-26T13:40:20.858Z,140
2019-01-26T13:41:21.024Z,145
2019-01-26T13:42:20.229Z,140
2019-01-26T13:43:20.744Z,140
2019-01-26T13:44:20.725Z,140
2019-01-26T13:45:20.502Z,135
2019-01-26T13:46:20.697Z,135
2019-01-26T13:47:20.694Z,135
2019-01-26T13:48:20.427Z,125
2019-01-26T13:49:20.701Z,120
2019-01-26T13:50:20.759Z,115
2019-01-26T13:51:22.647Z,105
2019-01-26T13:52:20.195Z,95
2019-01-26T13:53:19.981Z,95
2019-01-26T13:54:20.639Z,90
2019-01-26T13:55:20.233Z,95
2019-01-26T13:56:20.152Z,90
2019-01-26T13:57:20.664Z,90
2019-01-26T13:58:20.135Z,95
2019-01-26T13:59:21.257Z,100
2019-01-26T14:00:20.677Z,110
2019-01-26T14:01:19.863Z,115
2019-01-26T14:02:20.369Z,115
2019-01-26T14:03:20.643Z,115
2019-01-26T14:04:20.706Z,100
2019-01-26T14:05:20.661Z,95
2019-01-26T14:06:20.586Z,90
2019-01-26T14:07:20.581Z,80
2019-01-26T14:08:20.584Z,85
2019-01-26T14:09:20.580Z,95
2019-01-26T14:10:20.800Z,100
2019-01-26T14:11:20.549Z,100
2019-01-26T14:12:20.061Z,95
2019-01-26T14:13:20.555Z,95
2019-01-26T14:14:20.281Z,95
2019-01-26T14:15:20.576Z,90
2019-01-26T14:16:20.846Z,85
2019-01-26T14:17:20.483Z,75
2019-01-26T14:18:20.017Z,65
2019-01-26T14:19:19.998Z,65
2019-01-26T14:20:20.823Z,65
2019-01-26T14:21:20.236Z,65
2019-01-26T14:22:20.488Z,65
2019-01-26T14:23:20.424Z,65